createdAt,value
2022-11-04T00:01:33.818Z,18.17
2022-11-04T00:04:01.418Z,18.95
2022-11-04T00:06:28.743Z,18.50
2022-11-04T00:08:57.555Z,18.02
2022-11-04T00:11:44.994Z,17.50
2022-11-04T00:14:13.185Z,18.60
2022-11-04T00:16:59.968Z,18.90
2022-11-04T00:19:27.947Z,16.83
2022-11-04T00:22:14.620Z,18.40
2022-11-04T00:25:00.544Z,18.00
2022-11-04T00:27:46.875Z,17.80
2022-11-04T00:30:14.182Z,18.50
2022-11-04T00:33:00.199Z,17.40
2022-11-04T00:35:27.521Z,17.70
2022-11-04T00:37:55.102Z,18.05
2022-11-04T00:40:22.668Z,18.30
2022-11-04T00:42:49.990Z,16.48
2022-11-04T00:45:17.566Z,17.80
2022-11-04T00:47:44.880Z,18.70
2022-11-04T00:50:12.231Z,18.05
2022-11-04T00:52:39.783Z,17.52
2022-11-04T00:55:07.466Z,18.50
2022-11-04T00:57:34.757Z,16.55
2022-11-04T01:00:02.383Z,17.67
2022-11-04T01:02:29.921Z,18.20
2022-11-04T01:04:57.282Z,17.62
2022-11-04T01:07:24.865Z,17.70
2022-11-04T01:09:52.179Z,17.48
2022-11-04T01:12:19.708Z,17.98
2022-11-04T01:14:49.739Z,17.40
2022-11-04T01:17:17.207Z,18.08
2022-11-04T01:19:44.546Z,17.20
2022-11-04T01:22:12.112Z,18.17
2022-11-04T01:24:39.442Z,18.02
2022-11-04T01:27:06.783Z,19.80
2022-11-04T01:29:34.421Z,16.90
2022-11-04T01:32:01.739Z,17.48
2022-11-04T01:34:29.142Z,18.45
2022-11-04T01:36:56.856Z,17.48
2022-11-04T01:39:24.183Z,18.20
2022-11-04T01:41:51.533Z,17.90
2022-11-04T01:44:50.026Z,17.52
2022-11-04T01:47:42.305Z,18.25
2022-11-04T01:50:14.244Z,18.10
2022-11-04T01:52:51.241Z,18.10
2022-11-04T01:55:31.786Z,17.60
2022-11-04T01:58:04.474Z,17.58
2022-11-04T02:00:32.996Z,18.15
2022-11-04T02:03:10.401Z,18.17
2022-11-04T02:05:38.789Z,17.45
2022-11-04T02:08:07.048Z,16.85
2022-11-04T02:10:34.342Z,17.80
2022-11-04T02:13:03.440Z,18.15
2022-11-04T02:15:40.071Z,19.00
2022-11-04T02:18:14.841Z,18.08
2022-11-04T02:21:09.660Z,18.17
2022-11-04T02:24:15.015Z,18.10
2022-11-04T02:27:20.299Z,19.27
2022-11-04T02:30:20.086Z,19.00
2022-11-04T02:33:00.081Z,19.35
2022-11-04T02:35:56.271Z,19.23
2022-11-04T02:38:49.136Z,19.95
2022-11-04T02:41:16.387Z,19.45
2022-11-04T02:43:53.224Z,20.45
2022-11-04T02:46:36.914Z,20.65
2022-11-04T02:49:25.334Z,20.75
2022-11-04T02:52:00.699Z,20.73
2022-11-04T02:54:36.493Z,19.10
2022-11-04T02:57:07.522Z,20.70
2022-11-04T02:59:38.384Z,20.15
2022-11-04T03:02:09.156Z,20.20
2022-11-04T03:04:46.859Z,19.58
2022-11-04T03:07:16.184Z,21.10
2022-11-04T03:09:48.046Z,21.58
2022-11-04T03:12:17.737Z,21.05
2022-11-04T03:14:49.598Z,19.65
2022-11-04T03:17:24.007Z,20.62
2022-11-04T03:19:57.373Z,19.95
2022-11-04T03:22:35.744Z,20.60
2022-11-04T03:25:04.780Z,20.70
2022-11-04T03:27:45.000Z,19.87
2022-11-04T03:33:04.714Z,21.08
2022-11-04T03:35:32.590Z,21.27
2022-11-04T03:38:00.288Z,21.33
2022-11-04T03:40:27.617Z,20.90
2022-11-04T03:43:17.885Z,18.77
2022-11-04T03:45:45.294Z,20.00
2022-11-04T03:48:13.236Z,19.17
2022-11-04T03:50:47.615Z,19.15
2022-11-04T03:53:22.233Z,18.73
2022-11-04T03:55:55.421Z,18.95
2022-11-04T03:58:55.166Z,19.05
2022-11-04T04:01:35.277Z,20.88
2022-11-04T04:04:10.188Z,20.10
2022-11-04T04:06:37.997Z,20.10
2022-11-04T04:09:16.583Z,20.88
2022-11-04T04:11:55.112Z,20.77
2022-11-04T04:14:39.198Z,21.12
2022-11-04T04:17:20.243Z,21.70
2022-11-04T04:20:11.020Z,22.98
2022-11-04T04:23:01.994Z,22.10
2022-11-04T04:25:49.226Z,22.02
2022-11-04T04:28:17.840Z,22.85
2022-11-04T04:30:46.387Z,24.08
2022-11-04T04:33:15.818Z,24.02
2022-11-04T04:35:53.853Z,23.95
2022-11-04T04:38:43.952Z,23.30
2022-11-04T04:41:36.535Z,23.83
2022-11-04T04:44:23.775Z,24.80
2022-11-04T04:46:52.282Z,24.42
2022-11-04T04:49:19.882Z,26.73
2022-11-04T04:51:47.903Z,26.33
2022-11-04T04:54:15.509Z,27.70
2022-11-04T04:56:43.128Z,27.67
2022-11-04T04:59:10.437Z,25.45
2022-11-04T05:01:38.033Z,28.77
2022-11-04T05:04:05.682Z,29.67
2022-11-04T05:06:32.996Z,28.80
2022-11-04T05:09:00.345Z,28.38
2022-11-04T05:11:27.929Z,29.65
2022-11-04T05:13:55.221Z,29.20
2022-11-04T05:16:22.579Z,32.58
2022-11-04T05:18:51.892Z,29.92
2022-11-04T05:21:19.244Z,31.70
2022-11-04T05:23:46.555Z,32.25
2022-11-04T05:26:14.991Z,31.02
2022-11-04T05:28:42.283Z,28.90
2022-11-04T05:31:09.614Z,28.12
2022-11-04T05:33:37.213Z,28.02
2022-11-04T05:36:13.203Z,28.10
2022-11-04T05:38:41.085Z,27.60
2022-11-04T05:41:10.424Z,27.15
2022-11-04T05:43:38.606Z,26.73
2022-11-04T05:46:06.165Z,27.02
2022-11-04T05:48:39.260Z,26.77
2022-11-04T05:51:07.853Z,29.50
2022-11-04T05:53:35.379Z,29.50
2022-11-04T05:56:02.690Z,29.90
2022-11-04T05:58:30.275Z,29.30
2022-11-04T06:01:43.914Z,27.90
2022-11-04T06:04:16.722Z,26.87
2022-11-04T06:06:44.151Z,27.02
2022-11-04T06:09:11.906Z,28.70
2022-11-04T06:11:39.697Z,29.05
2022-11-04T06:14:07.000Z,29.00
2022-11-04T06:16:34.584Z,28.40
2022-11-04T06:19:06.094Z,29.92
2022-11-04T06:21:37.342Z,29.10
2022-11-04T06:24:04.769Z,28.73
2022-11-04T06:26:32.126Z,26.45
2022-11-04T06:28:59.686Z,28.48
2022-11-04T06:31:27.274Z,30.35
2022-11-04T06:33:54.634Z,28.55
2022-11-04T06:36:22.331Z,29.00
2022-11-04T06:38:49.655Z,31.55
2022-11-04T06:41:17.394Z,28.62
2022-11-04T06:43:45.157Z,27.92
2022-11-04T06:46:40.703Z,29.33
2022-11-04T06:49:20.049Z,27.83
2022-11-04T06:51:47.968Z,29.80
2022-11-04T06:54:16.839Z,28.85
2022-11-04T06:56:44.731Z,27.90
2022-11-04T06:59:15.916Z,27.42
2022-11-04T07:01:43.779Z,27.08
2022-11-04T07:04:11.183Z,29.40
2022-11-04T07:06:43.951Z,28.50
2022-11-04T07:09:13.990Z,29.37
2022-11-04T07:11:42.924Z,30.50
2022-11-04T07:14:11.013Z,30.15
2022-11-04T07:16:38.730Z,29.98
2022-11-04T07:19:06.588Z,30.02
2022-11-04T07:21:33.939Z,30.98
2022-11-04T07:24:02.127Z,28.55
2022-11-04T07:26:29.455Z,29.08
2022-11-04T07:28:58.028Z,29.20
2022-11-04T07:31:25.656Z,27.17
2022-11-04T07:33:53.639Z,26.08
2022-11-04T07:36:20.981Z,25.52
2022-11-04T07:38:48.615Z,26.15
2022-11-04T07:41:16.577Z,25.85
2022-11-04T07:43:48.716Z,24.45
2022-11-04T07:46:16.743Z,25.52
2022-11-04T07:48:44.081Z,25.70
2022-11-04T07:51:14.771Z,28.42
2022-11-04T07:53:42.798Z,28.25
2022-11-04T07:56:11.746Z,29.00
2022-11-04T07:58:39.804Z,25.70
2022-11-04T08:01:12.253Z,24.95
2022-11-04T08:06:08.749Z,23.77
2022-11-04T08:08:36.175Z,25.12
2022-11-04T08:11:07.015Z,25.73
2022-11-04T08:13:36.274Z,27.13
2022-11-04T08:16:13.113Z,25.88
2022-11-04T08:18:41.566Z,22.33
2022-11-04T08:21:09.718Z,27.48
2022-11-04T08:23:37.391Z,28.83
2022-11-04T08:26:09.815Z,27.70
2022-11-04T08:28:37.804Z,27.92
2022-11-04T08:31:07.629Z,30.17
2022-11-04T08:33:36.504Z,30.98
2022-11-04T08:36:10.009Z,30.48
2022-11-04T08:38:37.526Z,28.75
2022-11-04T08:41:06.995Z,28.02
2022-11-04T08:43:34.924Z,31.98
2022-11-04T08:46:05.705Z,30.08
2022-11-04T08:48:35.172Z,30.35
2022-11-04T08:51:04.611Z,32.13
2022-11-04T08:53:31.929Z,30.83
2022-11-04T08:55:59.511Z,29.60
2022-11-04T08:58:26.822Z,31.02
2022-11-04T09:00:54.141Z,30.62
2022-11-04T09:03:21.746Z,30.33
2022-11-04T09:08:17.634Z,31.05
2022-11-04T09:10:46.847Z,31.75
2022-11-04T09:13:15.887Z,29.90
2022-11-04T09:15:43.303Z,26.33
2022-11-04T09:18:10.901Z,30.27
2022-11-04T09:20:38.622Z,28.55
2022-11-04T09:23:06.831Z,29.83
2022-11-04T09:25:35.501Z,26.55
2022-11-04T09:28:03.154Z,27.33
2022-11-04T09:30:30.686Z,28.02
2022-11-04T09:32:58.689Z,28.30
2022-11-04T09:35:27.628Z,28.17
2022-11-04T09:37:55.170Z,28.05
2022-11-04T09:40:24.838Z,28.77
2022-11-04T09:43:01.582Z,28.85
2022-11-04T09:45:31.124Z,28.62
2022-11-04T09:48:01.486Z,28.62
2022-11-04T09:51:01.052Z,30.27
2022-11-04T09:53:41.853Z,28.85
2022-11-04T09:56:16.270Z,29.95
2022-11-04T09:58:43.578Z,28.48
2022-11-04T10:01:28.922Z,30.37
2022-11-04T10:04:45.945Z,31.12
2022-11-04T10:07:16.222Z,29.33
2022-11-04T10:10:34.982Z,29.37
2022-11-04T10:13:23.198Z,29.87
2022-11-04T10:15:58.647Z,30.52
2022-11-04T10:18:50.270Z,32.60
2022-11-04T10:21:37.405Z,29.30
2022-11-04T10:24:20.767Z,30.10
2022-11-04T10:27:00.764Z,30.62
2022-11-04T10:29:34.049Z,32.33
2022-11-04T10:32:03.675Z,32.08
2022-11-04T10:34:33.270Z,31.80
2022-11-04T10:37:00.601Z,30.52
2022-11-04T10:39:31.499Z,32.42
2022-11-04T10:41:59.269Z,30.30
2022-11-04T10:44:29.510Z,31.23
2022-11-04T10:47:18.885Z,29.92
2022-11-04T10:50:27.196Z,31.05
2022-11-04T10:52:48.650Z,31.48
2022-11-04T10:55:38.401Z,31.65
2022-11-04T10:58:16.265Z,31.85
2022-11-04T11:00:44.046Z,30.98
2022-11-04T11:03:34.302Z,32.63
2022-11-04T11:06:37.483Z,33.03
2022-11-04T11:09:28.519Z,30.33
2022-11-04T11:12:00.803Z,31.45
2022-11-04T11:14:28.295Z,30.73
2022-11-04T11:16:57.235Z,32.40
2022-11-04T11:19:25.676Z,31.35
2022-11-04T11:21:55.987Z,31.83
2022-11-04T11:24:28.183Z,32.22
2022-11-04T11:26:57.704Z,31.25
2022-11-04T11:29:26.442Z,31.80
2022-11-04T11:31:55.603Z,30.90
2022-11-04T11:34:32.579Z,32.30
2022-11-04T11:37:05.215Z,31.90
2022-11-04T11:39:33.642Z,31.87
2022-11-04T11:42:00.940Z,32.20
2022-11-04T11:44:33.809Z,33.75
2022-11-04T11:47:06.728Z,32.80
2022-11-04T11:49:36.629Z,32.85
2022-11-04T11:52:38.341Z,33.15
2022-11-04T11:55:25.178Z,31.42
2022-11-04T12:01:11.883Z,33.63
2022-11-04T12:09:59.769Z,34.15
2022-11-04T12:13:06.797Z,34.20
2022-11-04T12:15:37.822Z,34.20
2022-11-04T12:18:18.637Z,35.40
2022-11-04T12:20:53.778Z,35.88
2022-11-04T12:23:43.442Z,34.15
2022-11-04T12:26:20.944Z,35.17
2022-11-04T12:29:29.799Z,34.03
2022-11-04T12:32:27.671Z,36.45
2022-11-04T12:35:04.388Z,35.88
2022-11-04T12:37:52.907Z,38.63
2022-11-04T12:40:29.850Z,37.40
2022-11-04T12:43:35.802Z,37.90
2022-11-04T12:46:12.461Z,37.38
2022-11-04T12:48:57.421Z,38.92
2022-11-04T12:51:48.134Z,36.53
2022-11-04T12:54:34.068Z,37.33
2022-11-04T12:57:19.621Z,37.63
2022-11-04T13:00:11.167Z,38.92
2022-11-04T13:02:42.929Z,36.90
2022-11-04T13:05:38.431Z,37.67
2022-11-04T13:08:24.580Z,39.90
2022-11-04T13:11:24.149Z,39.42
2022-11-04T13:14:01.880Z,37.35
2022-11-04T13:16:32.546Z,36.80
2022-11-04T13:19:00.378Z,37.17
2022-11-04T13:21:30.423Z,39.53
2022-11-04T13:24:17.875Z,38.08
2022-11-04T13:26:45.478Z,37.50
2022-11-04T13:29:15.652Z,37.97
2022-11-04T13:31:58.217Z,38.60
2022-11-04T13:34:33.000Z,38.35
2022-11-04T13:37:25.185Z,37.95
2022-11-04T13:39:57.850Z,39.15
2022-11-04T13:45:16.398Z,37.17
2022-11-04T13:47:50.540Z,37.03
2022-11-04T13:50:27.804Z,37.38
2022-11-04T13:52:55.152Z,38.10
2022-11-04T13:55:22.871Z,37.50
2022-11-04T13:58:01.589Z,35.67
2022-11-04T14:00:30.752Z,37.60
2022-11-04T14:03:26.874Z,36.28
2022-11-04T14:06:03.883Z,36.35
2022-11-04T14:08:32.359Z,35.30
2022-11-04T14:11:01.571Z,35.83
2022-11-04T14:13:32.596Z,35.50
2022-11-04T14:16:07.287Z,34.95
2022-11-04T14:18:42.298Z,34.60
2022-11-04T14:21:11.460Z,34.75
2022-11-04T14:23:53.046Z,37.17
2022-11-04T14:26:26.995Z,35.58
2022-11-04T14:29:03.009Z,33.42
2022-11-04T14:31:35.884Z,36.35
2022-11-04T14:34:04.291Z,36.50
2022-11-04T14:36:41.619Z,34.33
2022-11-04T14:39:11.633Z,35.55
2022-11-04T14:41:57.450Z,36.92
2022-11-04T14:44:37.665Z,32.33
2022-11-04T14:47:20.427Z,35.08
2022-11-04T14:52:30.885Z,33.15
2022-11-04T14:55:05.315Z,34.20
2022-11-04T14:57:44.928Z,32.47
2022-11-04T15:00:36.075Z,33.22
2022-11-04T15:03:32.068Z,30.45
2022-11-04T15:06:05.494Z,32.53
2022-11-04T15:08:38.212Z,32.75
2022-11-04T15:11:16.908Z,32.63
2022-11-04T15:13:50.327Z,30.52
2022-11-04T15:16:24.353Z,31.73
2022-11-04T15:18:53.161Z,33.75
2022-11-04T15:21:20.532Z,36.67
2022-11-04T15:23:50.121Z,32.45
2022-11-04T15:26:30.163Z,31.73
2022-11-04T15:29:03.517Z,29.90
2022-11-04T15:31:32.266Z,30.60
2022-11-04T15:34:03.165Z,29.42
2022-11-04T15:36:38.662Z,31.48
2022-11-04T15:39:11.527Z,28.85
2022-11-04T15:42:00.025Z,31.10
2022-11-04T15:44:29.985Z,28.25
2022-11-04T15:46:59.979Z,28.98
2022-11-04T15:49:28.980Z,29.12
2022-11-04T15:52:01.358Z,28.95
2022-11-04T15:54:31.043Z,27.13
2022-11-04T15:57:01.068Z,30.10
2022-11-04T15:59:31.759Z,30.05
2022-11-04T16:01:59.798Z,28.65
2022-11-04T16:04:28.462Z,28.73
2022-11-04T16:07:23.067Z,29.08
2022-11-04T16:09:54.575Z,29.92
2022-11-04T16:12:28.034Z,31.67
2022-11-04T16:14:57.074Z,31.23
2022-11-04T16:17:25.590Z,31.27
2022-11-04T16:19:56.131Z,29.67
2022-11-04T16:22:28.535Z,29.27
2022-11-04T16:24:56.647Z,28.65
2022-11-04T16:27:25.125Z,28.40
2022-11-04T16:30:01.760Z,27.08
2022-11-04T16:32:43.564Z,28.52
2022-11-04T16:35:25.292Z,27.98
2022-11-04T16:37:54.097Z,27.30
2022-11-04T16:40:22.752Z,26.77
2022-11-04T16:42:50.606Z,27.73
2022-11-04T16:45:25.158Z,28.10
2022-11-04T16:47:53.490Z,27.98
2022-11-04T16:50:21.546Z,28.08
2022-11-04T16:52:49.106Z,27.50
2022-11-04T16:55:16.446Z,25.25
2022-11-04T16:57:47.840Z,26.92
2022-11-04T17:00:23.699Z,26.25
2022-11-04T17:02:52.533Z,26.05
2022-11-04T17:05:20.511Z,25.85
2022-11-04T17:07:53.632Z,25.42
2022-11-04T17:10:28.285Z,25.35
2022-11-04T17:12:55.698Z,25.35
2022-11-04T17:15:23.287Z,26.08
2022-11-04T17:17:50.626Z,26.15
2022-11-04T17:20:18.315Z,25.65
2022-11-04T17:22:47.255Z,24.15
2022-11-04T17:25:20.453Z,25.37
2022-11-04T17:27:48.592Z,25.30
2022-11-04T17:30:16.994Z,25.70
2022-11-04T17:32:45.171Z,26.05
2022-11-04T17:35:13.446Z,26.83
2022-11-04T17:37:41.197Z,24.50
2022-11-04T17:40:12.053Z,26.45
2022-11-04T17:42:58.147Z,24.58
2022-11-04T17:45:25.546Z,24.00
2022-11-04T17:47:53.110Z,24.83
2022-11-04T17:50:20.464Z,26.08
2022-11-04T17:52:49.314Z,24.33
2022-11-04T17:55:19.764Z,24.75
2022-11-04T17:57:50.985Z,24.75
2022-11-04T18:00:19.518Z,26.35
2022-11-04T18:02:47.227Z,25.60
2022-11-04T18:05:14.610Z,25.05
2022-11-04T18:07:42.216Z,24.55
2022-11-04T18:10:09.946Z,23.48
2022-11-04T18:12:37.273Z,26.30
2022-11-04T18:15:05.882Z,25.75
2022-11-04T18:17:37.186Z,25.73
2022-11-04T18:20:08.247Z,25.35
2022-11-04T18:22:40.032Z,25.00
2022-11-04T18:25:08.045Z,25.67
2022-11-04T18:27:35.545Z,24.98
2022-11-04T18:30:03.502Z,25.60
2022-11-04T18:32:31.078Z,24.58
2022-11-04T18:34:58.378Z,25.25
2022-11-04T18:37:26.212Z,23.90
2022-11-04T18:39:53.541Z,25.25
2022-11-04T18:42:20.860Z,25.85
2022-11-04T18:44:48.607Z,26.12
2022-11-04T18:47:16.251Z,24.95
2022-11-04T18:49:43.595Z,25.33
2022-11-04T18:52:11.374Z,26.10
2022-11-04T18:54:38.763Z,27.08
2022-11-04T18:57:06.073Z,26.20
2022-11-04T18:59:33.719Z,28.25
2022-11-04T19:02:01.330Z,28.10
2022-11-04T19:04:28.867Z,28.08
2022-11-04T19:06:56.548Z,29.98
2022-11-04T19:12:30.032Z,36.92
2022-11-04T19:14:57.340Z,34.97
2022-11-04T19:17:25.225Z,37.38
2022-11-04T19:19:52.541Z,36.75
2022-11-04T19:22:19.838Z,33.63
2022-11-04T19:24:47.512Z,33.40
2022-11-04T19:27:15.161Z,33.08
2022-11-04T19:29:42.482Z,32.05
2022-11-04T19:32:14.321Z,32.05
2022-11-04T19:34:42.748Z,34.63
2022-11-04T19:37:10.784Z,37.15
2022-11-04T19:39:39.014Z,35.83
2022-11-04T19:42:24.854Z,35.25
2022-11-04T19:44:52.436Z,34.53
2022-11-04T19:47:19.766Z,35.75
2022-11-04T19:49:47.284Z,38.65
2022-11-04T19:52:14.918Z,37.75
2022-11-04T19:54:42.268Z,36.85
2022-11-04T19:57:09.611Z,35.30
2022-11-04T19:59:37.369Z,33.92
2022-11-04T20:02:04.779Z,29.63
2022-11-04T20:04:32.555Z,30.33
2022-11-04T20:06:59.846Z,29.48
2022-11-04T20:09:27.172Z,30.15
2022-11-04T20:12:13.200Z,27.30
2022-11-04T20:14:40.507Z,27.62
2022-11-04T20:17:08.231Z,26.02
2022-11-04T20:19:35.532Z,25.52
2022-11-04T20:22:03.689Z,26.73
2022-11-04T20:24:31.327Z,25.70
2022-11-04T20:26:58.644Z,25.83
2022-11-04T20:29:26.001Z,26.80
2022-11-04T20:31:53.587Z,25.40
2022-11-04T20:34:20.911Z,25.12
2022-11-04T20:36:48.449Z,25.52
2022-11-04T20:39:18.242Z,24.90
2022-11-04T20:41:45.733Z,24.52
2022-11-04T20:44:14.488Z,25.75
2022-11-04T20:46:42.807Z,27.55
2022-11-04T20:49:11.141Z,25.48
2022-11-04T20:51:48.591Z,28.27
2022-11-04T20:54:17.969Z,27.05
2022-11-04T20:56:45.569Z,28.85
2022-11-04T20:59:13.812Z,28.95
2022-11-04T21:01:43.561Z,29.52
2022-11-04T21:04:14.901Z,29.10
2022-11-04T21:06:42.528Z,29.27
2022-11-04T21:09:12.212Z,27.67
2022-11-04T21:11:40.032Z,28.15
2022-11-04T21:14:08.805Z,29.48
2022-11-04T21:16:36.340Z,32.03
2022-11-04T21:19:04.712Z,32.95
2022-11-04T21:21:33.291Z,33.95
2022-11-04T21:24:02.799Z,33.80
2022-11-04T21:26:32.154Z,34.25
2022-11-04T21:29:02.188Z,34.20
2022-11-04T21:31:31.352Z,32.35
2022-11-04T21:33:59.266Z,32.58
2022-11-04T21:36:26.845Z,34.53
2022-11-04T21:38:54.454Z,34.42
2022-11-04T21:41:25.235Z,35.70
2022-11-04T21:43:56.999Z,36.55
2022-11-04T21:46:25.382Z,36.73
2022-11-04T21:48:53.077Z,39.85
2022-11-04T21:51:25.616Z,39.80
2022-11-04T21:53:53.282Z,40.67
2022-11-04T21:56:32.962Z,37.42
2022-11-04T21:59:00.928Z,39.05
2022-11-04T22:01:29.502Z,37.22
2022-11-04T22:03:59.494Z,35.78
2022-11-04T22:06:33.539Z,33.92
2022-11-04T22:09:03.486Z,27.92
2022-11-04T22:11:32.236Z,24.30
2022-11-04T22:14:01.504Z,21.60
2022-11-04T22:16:30.998Z,17.42
2022-11-04T22:18:59.980Z,14.90
2022-11-04T22:21:28.526Z,15.25
2022-11-04T22:23:56.615Z,15.00
2022-11-04T22:26:26.540Z,14.57
2022-11-04T22:28:54.428Z,11.12
2022-11-04T22:31:27.174Z,10.88
2022-11-04T22:33:55.056Z,10.27
2022-11-04T22:36:23.398Z,9.30
2022-11-04T22:38:50.759Z,9.52
2022-11-04T22:41:21.400Z,9.30
2022-11-04T22:43:48.981Z,8.57
2022-11-04T22:46:27.585Z,10.07
2022-11-04T22:48:55.335Z,8.93
2022-11-04T22:51:23.091Z,8.30
2022-11-04T22:53:57.868Z,7.55
2022-11-04T22:56:27.795Z,6.85
2022-11-04T22:58:55.247Z,6.45
2022-11-04T23:01:22.750Z,6.68
2022-11-04T23:03:51.853Z,5.93
2022-11-04T23:06:19.490Z,6.03
2022-11-04T23:08:46.942Z,5.45
2022-11-04T23:11:37.130Z,5.43
2022-11-04T23:14:23.602Z,5.50
2022-11-04T23:17:10.711Z,5.53
2022-11-04T23:19:38.695Z,5.55
2022-11-04T23:22:25.202Z,5.18
2022-11-04T23:25:05.728Z,4.75
2022-11-04T23:27:58.720Z,4.93
2022-11-04T23:32:56.864Z,4.20
2022-11-04T23:35:46.295Z,4.50
2022-11-04T23:38:14.251Z,4.20
2022-11-04T23:40:41.897Z,3.53
2022-11-04T23:43:09.620Z,4.05
2022-11-04T23:45:55.821Z,4.00
2022-11-04T23:48:41.964Z,3.90
2022-11-04T23:51:28.463Z,4.00
2022-11-04T23:54:14.370Z,3.72
2022-11-04T23:57:00.454Z,3.45
2022-11-04T23:59:46.375Z,3.85
